TimeMST,TemperatureF,Dew PointF,Humidity,Sea Level PressureIn,VisibilityMPH,Wind Direction,Wind SpeedMPH,Gust SpeedMPH,PrecipitationIn,Events,Conditions,WindDirDegrees,DateUTC
12:15 AM,42.8,23.0,46,29.84,10.0,SW,21.9,43.7,N/A,,Clear,230,2014-01-03 07:15:00
12:35 AM,44.6,23.0,43,29.84,10.0,Calm,Calm,-,N/A,,Clear,0,2014-01-03 07:35:00
12:55 AM,42.8,21.2,42,29.82,10.0,WSW,13.8,19.6,N/A,,Clear,240,2014-01-03 07:55:00
1:15 AM,44.6,24.8,46,29.80,10.0,WSW,17.3,31.1,N/A,,Clear,250,2014-01-03 08:15:00
1:35 AM,44.6,23.0,43,29.80,10.0,WSW,11.5,21.9,N/A,,Clear,240,2014-01-03 08:35:00
1:55 AM,44.6,23.0,43,29.79,10.0,SSW,6.9,-,N/A,,Partly Cloudy,210,2014-01-03 08:55:00
2:15 AM,39.2,21.2,49,29.79,10.0,South,6.9,-,N/A,,Clear,170,2014-01-03 09:15:00
2:35 AM,39.2,21.2,49,29.77,10.0,East,10.4,-,N/A,,Clear,100,2014-01-03 09:35:00
2:55 AM,39.2,24.8,56,29.76,10.0,WNW,4.6,-,N/A,,Clear,300,2014-01-03 09:55:00
3:15 AM,44.6,24.8,46,29.75,10.0,WSW,12.7,18.4,N/A,,Clear,240,2014-01-03 10:15:00
3:35 AM,44.6,23.0,43,29.74,10.0,WSW,10.4,20.7,N/A,,Clear,240,2014-01-03 10:35:00
3:55 AM,42.8,21.2,42,29.73,10.0,SSW,15.0,21.9,N/A,,Clear,200,2014-01-03 10:55:00
4:15 AM,44.6,23.0,43,29.71,10.0,WSW,17.3,27.6,N/A,,Clear,240,2014-01-03 11:15:00
4:35 AM,44.6,21.2,39,29.70,10.0,SSW,13.8,27.6,N/A,,Clear,210,2014-01-03 11:35:00
4:55 AM,42.8,21.2,42,29.69,10.0,South,24.2,29.9,N/A,,Clear,170,2014-01-03 11:55:00
5:15 AM,42.8,24.8,49,29.67,10.0,WSW,17.3,33.4,N/A,,Clear,240,2014-01-03 12:15:00
5:35 AM,44.6,24.8,46,29.67,10.0,SW,11.5,21.9,N/A,,Mostly Cloudy,230,2014-01-03 12:35:00
5:55 AM,44.6,23.0,43,29.67,10.0,SW,16.1,21.9,N/A,,Overcast,220,2014-01-03 12:55:00
6:15 AM,44.6,23.0,43,29.66,10.0,WSW,10.4,23.0,N/A,,Overcast,240,2014-01-03 13:15:00
6:35 AM,44.6,23.0,43,29.63,10.0,WSW,20.7,28.8,N/A,,Overcast,250,2014-01-03 13:35:00
7:15 AM,44.6,24.8,46,29.59,10.0,West,13.8,26.5,N/A,,Clear,270,2014-01-03 14:15:00
7:35 AM,44.6,24.8,46,29.57,10.0,WSW,19.6,32.2,N/A,,Clear,250,2014-01-03 14:35:00
7:55 AM,44.6,24.8,46,29.55,10.0,WSW,12.7,32.2,N/A,,Clear,250,2014-01-03 14:55:00
8:15 AM,44.6,24.8,46,29.53,10.0,WSW,16.1,26.5,N/A,,Clear,240,2014-01-03 15:15:00
8:35 AM,44.6,24.8,46,29.54,10.0,SW,13.8,27.6,N/A,,Clear,230,2014-01-03 15:35:00
8:55 AM,44.6,24.8,46,29.54,10.0,SW,15.0,20.7,N/A,,Clear,220,2014-01-03 15:55:00
9:15 AM,46.4,26.6,46,29.54,10.0,SSW,9.2,-,N/A,,Clear,210,2014-01-03 16:15:00
9:35 AM,44.6,26.6,49,29.54,10.0,SSW,6.9,-,N/A,,Clear,210,2014-01-03 16:35:00
9:55 AM,46.4,28.4,50,29.55,10.0,SW,8.1,-,N/A,,Mostly Cloudy,230,2014-01-03 16:55:00
10:15 AM,48.2,28.4,46,29.56,10.0,NNW,3.5,-,N/A,,Mostly Cloudy,340,2014-01-03 17:15:00
10:35 AM,46.4,28.4,50,29.57,10.0,WSW,18.4,24.2,N/A,,Overcast,250,2014-01-03 17:35:00
10:55 AM,44.6,30.2,57,29.57,10.0,West,17.3,24.2,N/A,,Overcast,270,2014-01-03 17:55:00
11:15 AM,42.8,32.0,66,29.55,10.0,West,11.5,19.6,N/A,,Mostly Cloudy,260,2014-01-03 18:15:00
11:35 AM,42.8,30.2,61,29.55,10.0,West,15.0,20.7,N/A,,Clear,270,2014-01-03 18:35:00
11:55 AM,44.6,30.2,57,29.54,10.0,West,13.8,19.6,N/A,,Scattered Clouds,260,2014-01-03 18:55:00
12:15 PM,44.6,28.4,53,29.53,10.0,West,15.0,26.5,N/A,,Scattered Clouds,260,2014-01-03 19:15:00
12:35 PM,46.4,26.6,46,29.53,10.0,West,12.7,31.1,N/A,,Partly Cloudy,260,2014-01-03 19:35:00
12:55 PM,46.4,23.0,40,29.53,10.0,West,20.7,35.7,N/A,,Mostly Cloudy,280,2014-01-03 19:55:00
1:15 PM,44.6,23.0,43,29.53,10.0,West,9.2,25.3,N/A,,Overcast,270,2014-01-03 20:15:00
1:35 PM,44.6,24.8,46,29.53,10.0,West,10.4,19.6,N/A,,Overcast,270,2014-01-03 20:35:00
1:55 PM,44.6,24.8,46,29.54,10.0,WNW,18.4,26.5,N/A,,Overcast,290,2014-01-03 20:55:00
2:15 PM,42.8,24.8,49,29.55,10.0,NNW,19.6,34.5,N/A,,Overcast,330,2014-01-03 21:15:00
2:35 PM,39.2,28.4,65,29.58,10.0,NW,9.2,-,N/A,,Mostly Cloudy,320,2014-01-03 21:35:00
2:55 PM,37.4,28.4,70,29.60,8.0,WNW,17.3,24.2,N/A,,Overcast,300,2014-01-03 21:55:00
3:15 PM,33.8,28.4,81,29.61,3.0,West,9.2,18.4,N/A,,Overcast,280,2014-01-03 22:15:00
3:35 PM,35.6,26.6,70,29.60,10.0,West,10.4,17.3,N/A,,Overcast,270,2014-01-03 22:35:00
3:55 PM,35.6,24.8,65,29.62,10.0,NE,8.1,-,N/A,,Overcast,40,2014-01-03 22:55:00
4:15 PM,33.8,23.0,65,29.64,10.0,East,11.5,-,N/A,,Overcast,100,2014-01-03 23:15:00
4:35 PM,32.0,21.2,64,29.64,10.0,SE,6.9,-,N/A,,Mostly Cloudy,130,2014-01-03 23:35:00
5:15 PM,32.0,19.4,60,29.68,10.0,NW,27.6,41.4,N/A,,Clear,320,2014-01-04 00:15:00
5:35 PM,32.0,15.8,51,29.70,10.0,NW,17.3,29.9,N/A,,Clear,320,2014-01-04 00:35:00
5:55 PM,33.8,15.8,48,29.71,10.0,WNW,18.4,33.4,N/A,,Mostly Cloudy,290,2014-01-04 00:55:00
6:15 PM,33.8,17.6,52,29.73,10.0,NW,11.5,19.6,N/A,,Overcast,320,2014-01-04 01:15:00
6:35 PM,32.0,15.8,51,29.73,10.0,NNW,9.2,-,N/A,,Overcast,330,2014-01-04 01:35:00
6:55 PM,30.2,17.6,60,29.75,10.0,North,12.7,31.1,N/A,,Mostly Cloudy,350,2014-01-04 01:55:00
7:15 PM,24.8,17.6,74,29.76,10.0,North,23.0,36.8,N/A,,Mostly Cloudy,360,2014-01-04 02:15:00
7:35 PM,21.2,17.6,86,29.76,10.0,North,26.5,34.5,N/A,,Partly Cloudy,360,2014-01-04 02:35:00
7:55 PM,21.2,17.6,86,29.79,10.0,NNW,16.1,29.9,N/A,,Clear,340,2014-01-04 02:55:00
8:15 PM,23.0,15.8,74,29.83,10.0,Calm,Calm,-,N/A,,Mostly Cloudy,0,2014-01-04 03:15:00
8:35 PM,23.0,15.8,74,29.84,10.0,SE,9.2,-,N/A,,Overcast,140,2014-01-04 03:35:00
8:55 PM,23.0,15.8,74,29.85,10.0,NE,4.6,-,N/A,,Overcast,40,2014-01-04 03:55:00
9:15 PM,23.0,15.8,74,29.85,10.0,NNW,15.0,18.4,N/A,,Overcast,340,2014-01-04 04:15:00
9:35 PM,21.2,15.8,80,29.85,10.0,NNW,12.7,23.0,N/A,,Overcast,330,2014-01-04 04:35:00
9:55 PM,21.2,15.8,80,29.85,10.0,NNW,12.7,16.1,N/A,,Overcast,340,2014-01-04 04:55:00
10:15 PM,21.2,15.8,80,29.86,10.0,NNW,12.7,-,N/A,,Overcast,340,2014-01-04 05:15:00
10:35 PM,21.2,15.8,80,29.86,10.0,NNW,10.4,-,N/A,,Overcast,340,2014-01-04 05:35:00
10:55 PM,21.2,15.8,80,29.86,10.0,NNW,11.5,-,N/A,,Overcast,340,2014-01-04 05:55:00
11:15 PM,21.2,15.8,80,29.86,10.0,NNW,16.1,21.9,N/A,,Overcast,340,2014-01-04 06:15:00
11:35 PM,21.2,15.8,80,29.87,10.0,North,13.8,25.3,N/A,,Mostly Cloudy,350,2014-01-04 06:35:00
11:55 PM,21.2,15.8,80,29.87,10.0,NNW,12.7,19.6,N/A,,Overcast,340,2014-01-04 06:55:00